• Join FlightAware (Why Join?)
  • Login
  • US Flag 
07:21AM EDT


 

Airport Tracker/Info


-or-


 

Live Flight TrackerFlight Track Log ✈ RSP305 ✈ 03-Feb-2014 ✈ KLAS - KDAL

Flight Track Log - Related Links

Times and Time Zones

All times are in EST time to prevent confusion due to time zone crossing. See the RSP305 flight status page for this flight to view local times or setup timezone preferences in your user account.

Time Position Orientation Groundspeed Altitude Reporting Facility
EST Latitude Longitude Course Direction KTS MPH feet Rate Location/Type
04:18PM 36.1011 -115.1547 35° Northeast 140 161 3,000  Level Los Angeles Center
04:19PM 36.1267 -115.1328 35° Northeast 167 192 4,100 1,920 Climbing Los Angeles Center
04:20PM 36.1344 -115.0692 81° East 195 224 6,300 2,100 Climbing Los Angeles Center
04:20PM 36.1339 -115.0653 100° East 193 222 6,400 2,160 Climbing Los Angeles Center
04:21PM 36.1414 -114.9922 83° East 216 249 8,500 1,980 Climbing Los Angeles Center
04:21PM 36.1417 -114.9925 321° Northwest 209 241 8,500 1,920 Level Los Angeles Center
04:22PM 36.1494 -114.9203 82° East 230 265 10,300 2,100 Climbing Los Angeles Center
04:22PM 36.1508 -114.9067 83° East 232 267 10,700 1,920 Climbing Los Angeles Center
04:23PM 36.1572 -114.8378 83° East 241 277 12,300 1,500 Climbing Los Angeles Center
04:23PM 36.1569 -114.8350 97° East 241 277 12,300 1,500 Level Los Angeles Center
04:24PM 36.1733 -114.7442 77° East 265 305 14,000 1,860 Climbing Los Angeles Center
04:24PM 36.1753 -114.7308 80° East 257 296 14,200 1,680 Climbing Los Angeles Center
04:25PM 36.1631 -114.6406 99° East 271 312 16,000 1,680 Climbing Los Angeles Center
04:26PM 36.0981 -114.5792 143° Southeast 288 331 17,700 1,680 Climbing Los Angeles Center
04:27PM 36.0311 -114.5186 144° Southeast 295 339 19,500 1,500 Climbing Los Angeles Center
04:28PM 35.9958 -114.4269 115° Southeast 306 352 20,900 1,380 Climbing Los Angeles Center
04:29PM 35.9858 -114.3239 97° East 304 350 22,400 960 Climbing Los Angeles Center
04:30PM 35.9664 -114.1925 100° East 319 367 23,000 780 Climbing Los Angeles Center
04:31PM 35.9481 -114.0722 101° East 347 399 24,100 1,260 Climbing Los Angeles Center
04:32PM 35.9314 -113.9572 100° East 346 398 25,700 1,320 Climbing Los Angeles Center
04:33PM 35.9153 -113.8467 100° East 334 384 26,900 1,080 Climbing Los Angeles Center
04:34PM 35.8961 -113.7300 101° East 342 394 28,000 1,140 Climbing Los Angeles Center
04:35PM 35.8739 -113.5900 101° East 345 397 29,500 1,200 Climbing Los Angeles Center
04:37PM 35.8517 -113.4589 102° East 350 403 30,800 1,200 Climbing Los Angeles Center
04:38PM 35.8333 -113.3431 101° East 348 400 32,100 1,200 Climbing Los Angeles Center
04:39PM 35.8153 -113.2297 101° East 341 392 33,300 1,020 Climbing Los Angeles Center
04:40PM 35.7931 -113.0919 101° East 341 392 34,300 780 Climbing Los Angeles Center
04:41PM 35.7744 -112.9761 101° East 344 396 35,000 600 Climbing Los Angeles Center
04:42PM 35.7556 -112.8592 101° East 347 399 35,600 480 Climbing Los Angeles Center
04:43PM 35.7356 -112.7406 102° East 350 403 36,100 480 Climbing Los Angeles Center
04:44PM 35.7164 -112.6236 101° East 349 402 36,700 240 Climbing Los Angeles Center
04:46PM 35.6792 -112.3853 101° East 355 409 37,000 60 Climbing Albuquerque Center
04:47PM 35.6667 -112.2319 96° East 375 432 37,000  Level Los Angeles Center
04:48PM 35.6556 -112.1003 96° East 384 442 37,000  Level Los Angeles Center
04:49PM 35.6439 -111.9675 96° East 390 449 37,000  Level Los Angeles Center
04:50PM 35.6319 -111.8331 96° East 394 453 37,000  Level Los Angeles Center
04:51PM 35.6192 -111.7008 97° East 391 450 37,000  Level Albuquerque Center
04:52PM 35.6067 -111.5703 97° East 388 447 37,000  Level Albuquerque Center
04:53PM 35.5939 -111.4158 96° East 384 442 37,000  Level Albuquerque Center
04:54PM 35.5839 -111.2925 96° East 382 440 37,000  Level Albuquerque Center
04:55PM 35.5706 -111.1675 97° East 383 441 37,000  Level Albuquerque Center
04:56PM 35.5583 -111.0253 96° East 378 435 37,000  Level Albuquerque Center
04:57PM 35.5453 -110.9022 97° East 378 435 37,000  Level Albuquerque Center
04:58PM 35.5325 -110.7592 96° East 378 435 37,000  Level Albuquerque Center
04:59PM 35.5197 -110.6364 97° East 378 435 37,000  Level Albuquerque Center
05:00PM 35.5058 -110.4928 97° East 379 436 37,000  Level Albuquerque Center
05:01PM 35.4942 -110.3714 97° East 377 434 37,000  Level Albuquerque Center
05:02PM 35.4811 -110.2283 96° East 377 434 37,000  Level Albuquerque Center
05:03PM 35.4678 -110.1056 98° East 378 435 37,000  Level Albuquerque Center
05:04PM 35.4533 -109.9628 97° East 379 436 37,000  Level Albuquerque Center
05:05PM 35.4411 -109.8414 97° East 377 434 37,000  Level Albuquerque Center
05:06PM 35.4269 -109.6981 97° East 379 436 37,000  Level Albuquerque Center
05:07PM 35.4142 -109.5758 97° East 378 435 37,000  Level Albuquerque Center
05:09PM 35.3969 -109.4292 98° East 386 444 37,000  Level Albuquerque Center
05:10PM 35.3836 -109.3053 97° East 387 445 37,000  Level Albuquerque Center
05:11PM 35.3681 -109.1625 98° East 382 440 37,000  Level Albuquerque Center
05:12PM 35.3544 -109.0392 98° East 382 440 37,000  Level Albuquerque Center
05:13PM 35.3383 -108.8953 98° East 382 440 37,000  Level Albuquerque Center
05:14PM 35.3239 -108.7717 98° East 383 441 37,000  Level Albuquerque Center
05:15PM 35.3075 -108.6281 98° East 383 441 37,000  Level Albuquerque Center
05:16PM 35.2928 -108.5050 98° East 383 441 37,000  Level Albuquerque Center
05:17PM 35.2767 -108.3569 98° East 389 448 37,000  Level Albuquerque Center
05:18PM 35.2625 -108.2325 98° East 387 445 37,000  Level Albuquerque Center
05:19PM 35.2475 -108.1081 98° East 388 447 37,000  Level Albuquerque Center
05:20PM 35.2306 -107.9631 98° East 387 445 37,000  Level Albuquerque Center
05:21PM 35.2147 -107.8392 99° East 386 444 37,000  Level Albuquerque Center
05:22PM 35.1975 -107.6950 98° East 385 443 37,000  Level Albuquerque Center
05:23PM 35.1808 -107.5703 99° East 386 444 37,000  Level Albuquerque Center
05:24PM 35.1653 -107.4231 97° East 391 450 37,000  Level Albuquerque Center
05:25PM 35.1481 -107.2992 100° East 387 445 37,000  Level Albuquerque Center
05:26PM 35.1294 -107.1522 99° East 385 443 37,000  Level Albuquerque Center
05:27PM 35.1119 -107.0236 99° East 384 442 37,000  Level Albuquerque Center
05:28PM 35.0936 -106.8847 99° East 385 443 37,000  Level Albuquerque Center
05:29PM 35.0781 -106.7567 98° East 383 441 37,000  Level Albuquerque Center
05:30PM 35.0606 -106.6244 99° East 393 452 37,000  Level Albuquerque Center
05:31PM 35.0417 -106.4908 100° East 398 458 37,000  Level Albuquerque Center
05:32PM 35.0231 -106.3567 100° East 403 464 37,000  Level Albuquerque Center
05:33PM 35.0058 -106.2231 99° East 401 461 37,000  Level Albuquerque Center
05:34PM 34.9833 -106.0622 100° East 403 464 37,000  Level Albuquerque Center
05:35PM 34.9647 -105.9281 100° East 404 465 37,000  Level Albuquerque Center
05:36PM 34.9458 -105.7956 100° East 400 460 37,000  Level Albuquerque Center
05:37PM 34.9269 -105.6625 100° East 400 460 37,000  Level Albuquerque Center
05:38PM 34.9072 -105.5250 100° East 403 464 37,000  Level Albuquerque Center
05:40PM 34.8881 -105.3889 100° East 405 466 37,000  Level Albuquerque Center
05:41PM 34.8653 -105.2300 100° East 406 467 37,000  Level Albuquerque Center
05:42PM 34.8456 -105.0942 100° East 405 466 37,000  Level Albuquerque Center
05:43PM 34.8250 -104.9583 100° East 406 467 37,000  Level Albuquerque Center
05:44PM 34.8056 -104.8206 100° East 410 472 37,000  Level Albuquerque Center
05:45PM 34.7839 -104.6833 101° East 411 473 37,000  Level Albuquerque Center
05:46PM 34.7644 -104.5444 100° East 414 476 37,000  Level Albuquerque Center
05:47PM 34.7431 -104.4042 100° East 419 482 37,000  Level Albuquerque Center
05:48PM 34.7181 -104.2394 100° East 423 487 37,000  Level Albuquerque Center
05:49PM 34.6972 -104.0972 100° East 424 488 37,000  Level Albuquerque Center
05:50PM 34.6739 -103.9533 101° East 430 495 37,000  Level Albuquerque Center
05:51PM 34.6517 -103.8097 101° East 431 496 37,000  Level Albuquerque Center
05:52PM 34.6289 -103.6647 101° East 433 498 37,000  Level Albuquerque Center
05:53PM 34.6067 -103.5228 101° East 430 495 37,000  Level Albuquerque Center
05:54PM 34.5833 -103.3783 101° East 432 497 37,000  Level Albuquerque Center
05:55PM 34.5561 -103.2128 101° East 429 494 37,000  Level Albuquerque Center
05:56PM 34.5322 -103.0683 101° East 431 496 37,000  Level Albuquerque Center
05:57PM 34.5086 -102.9256 101° East 431 496 37,000  Level Albuquerque Center
05:58PM 34.4858 -102.7781 101° East 434 499 37,000  Level Albuquerque Center
05:59PM 34.4736 -102.6322 96° East 437 503 37,000  Level Albuquerque Center
06:00PM 34.4583 -102.4856 97° East 440 506 37,100 480 Climbing Albuquerque Center
06:01PM 34.4431 -102.3417 97° East 437 503 38,000 900 Climbing Albuquerque Center
06:02PM 34.4286 -102.2036 97° East 426 490 39,000 480 Climbing Albuquerque Center
06:03PM 34.4108 -102.0383 97° East 418 481 39,000  Level Albuquerque Center
06:04PM 34.3958 -101.8989 97° East 419 482 39,000  Level Albuquerque Center
06:05PM 34.3803 -101.7553 97° East 425 489 39,000  Level Albuquerque Center
06:06PM 34.3633 -101.6108 98° East 432 497 39,000  Level Albuquerque Center
06:07PM 34.3475 -101.4681 98° East 430 495 39,000  Level Fort Worth Center
06:08PM 34.3328 -101.3256 97° East 430 495 39,000  Level Fort Worth Center
06:09PM 34.3161 -101.1856 98° East 426 490 39,000  Level Fort Worth Center
06:10PM 34.3006 -101.0467 98° East 422 486 39,000  Level Fort Worth Center
06:11PM 34.2806 -100.8803 98° East 420 483 39,000  Level Fort Worth Center
06:12PM 34.2636 -100.7419 98° East 418 481 39,000  Level Fort Worth Center
06:13PM 34.2469 -100.6028 98° East 420 483 39,000  Level Fort Worth Center
06:14PM 34.2303 -100.4625 98° East 422 486 39,000  Level Fort Worth Center
06:16PM 34.2136 -100.3283 99° East 424 488 39,000  Level Fort Worth Center
06:17PM 34.1806 -100.1653 104° East 416 479 39,000 -60 Level Fort Worth Center
06:18PM 34.1467 -100.0339 107° East 410 472 38,900 -420 Descending Fort Worth Center
06:19PM 34.1108 -99.8994 108° East 418 481 38,200 -780 Descending Fort Worth Center
06:20PM 34.0739 -99.7603 108° East 428 493 37,300 -900 Descending Fort Worth Center
06:21PM 34.0367 -99.6211 108° East 432 497 36,400 -900 Descending Fort Worth Center
06:22PM 33.9983 -99.4811 108° East 436 502 35,500 -780 Descending Fort Worth Center
06:23PM 33.9614 -99.3419 108° East 436 502 34,900 -1,260 Descending Fort Worth Center
06:24PM 33.9133 -99.1658 108° East 456 525 32,900 -1,440 Descending Fort Worth Center
06:25PM 33.8775 -99.0350 108° East 459 528 32,000 -960 Descending Fort Worth Center
06:26PM 33.8375 -98.8903 108° East 458 527 31,000 -1,020 Descending Fort Worth Center
06:27PM 33.7892 -98.7197 109° East 452 520 30,000 -840 Descending Fort Worth Center
06:28PM 33.7508 -98.5789 108° East 447 514 29,300 -1,020 Descending Fort Worth Center
06:29PM 33.7111 -98.4408 109° East 439 505 28,000 -1,800 Descending Fort Worth Center
06:30PM 33.6719 -98.3019 109° East 440 506 25,600 -2,520 Descending Fort Worth Center
06:31PM 33.6289 -98.1419 108° East 440 506 22,800 -2,280 Descending Fort Worth Center
06:32PM 33.5939 -98.0200 109° East 404 465 20,900 -1,980 Descending Fort Worth Center
06:33PM 33.5594 -97.8906 108° East 374 430 18,800 -1,920 Descending Fort Worth Center
06:34PM 33.5278 -97.7706 108° East 377 434 17,000 -2,040 Descending Fort Worth Center
06:35PM 33.4975 -97.6514 107° East 375 432 14,700 -2,220 Descending Fort Worth Center
06:36PM 33.4656 -97.5283 107° East 361 415 12,500 -1,980 Descending Fort Worth Center
06:37PM 33.4214 -97.4361 120° Southeast 326 375 10,700 -1,860 Descending Fort Worth Center
06:38PM 33.3811 -97.3458 118° Southeast 320 368 8,700 -1,620 Descending Fort Worth Center
06:39PM 33.3825 -97.2542 89° East 304 350 7,500 -1,200 Descending Fort Worth Center
06:40PM 33.3825 -97.1497 90° East 289 333 6,300 -1,140 Descending Fort Worth Center
06:41PM 33.3803 -97.0569 92° East 282 325 5,200 -1,080 Descending Fort Worth Center
06:42PM 33.3778 -96.9683 92° East 250 288 4,100 -600 Descending Fort Worth Center
06:43PM 33.3775 -96.9031 90° East 200 230 4,000 -60 Descending Fort Worth Center
06:44PM 33.3375 -96.8667 143° Southeast 196 226 4,000  Level Fort Worth Center
06:45PM 33.2856 -96.8378 155° Southeast 191 220 4,000  Level Fort Worth Center
06:46PM 33.2306 -96.8267 170° South 202 232 4,000  Level Fort Worth Center
06:48PM 33.1711 -96.8233 177° South 200 230 4,000  Level Fort Worth Center
06:49PM 33.1256 -96.8031 160° South 176 203 4,000  Level Fort Worth Center
06:49PM 33.1000 -96.7833 147° Southeast 180 207 4,000  Level Dallas / Fort Worth TRACON
06:50PM 33.0833 -96.7333 112° Southeast 181 208 4,000  Level Dallas / Fort Worth TRACON
06:51PM 33.0500 -96.7667 220° Southwest 215 247 4,000 -480 Level Dallas / Fort Worth TRACON
06:52PM 33.0167 -96.8333 239° Southwest 211 243 3,100 -600 Descending Dallas / Fort Worth TRACON
06:53PM 32.9833 -96.8833 232° Southwest 203 234 2,900 -540 Descending Dallas / Fort Worth TRACON
06:54PM 32.9667 -96.9333 248° West 195 224 2,100 -480 Descending Dallas / Fort Worth TRACON
06:55PM 32.9167 -96.9333 180° South 188 216 2,000 -360 Descending Dallas / Fort Worth TRACON
06:56PM 32.8833 -96.9000 140° Southeast 158 182 1,400 -660 Descending Dallas / Fort Worth TRACON
06:57PM 32.8667 -96.8667 121° Southeast 104 120 800 -600 Descending Dallas / Fort Worth TRACON